Time;durP1;ratioP1;P1;durP2;ratioP2;P2;SDS_P1;SDS_P2;PMS_P1;PMS_P2;Temp;Humidity;BMP_temperature;BMP_pressure;BME280_temperature;BME280_humidity;BME280_pressure;Samples;Min_cycle;Max_cycle;Signal;HPM_P1;HPM_P2
2023/04/29 00:02:06;;;;;;;39.28;26.15;;;;;;;;;;5072563;28;20214;-63
2023/04/29 00:04:32;;;;;;;39.45;27.88;;;;;;;;;;5070697;28;20218;-64
2023/04/29 00:06:57;;;;;;;42.35;28.30;;;;;;;;;;5090438;28;20240;-64
2023/04/29 00:09:22;;;;;;;38.22;27.10;;;;;;;;;;5086822;28;20708;-64
2023/04/29 00:11:49;;;;;;;39.95;28.77;;;;;;;;;;5072153;28;20757;-64
2023/04/29 00:14:15;;;;;;;41.33;27.50;;;;;;;;;;5072166;28;20236;-64
2023/04/29 00:16:40;;;;;;;40.40;28.95;;;;;;;;;;5066438;28;20566;-64
2023/04/29 00:19:05;;;;;;;34.88;26.65;;;;;;;;;;5071567;28;20214;-64
2023/04/29 00:21:32;;;;;;;39.28;28.77;;;;;;;;;;5072726;28;20214;-64
2023/04/29 00:23:57;;;;;;;38.97;28.38;;;;;;;;;;5090722;28;20205;-64
2023/04/29 00:26:22;;;;;;;33.08;25.15;;;;;;;;;;5091687;28;20562;-64
2023/04/29 00:28:48;;;;;;;33.53;26.33;;;;;;;;;;5091155;28;20599;-64
2023/04/29 00:31:13;;;;;;;37.95;27.25;;;;;;;;;;5092259;28;20210;-64
2023/04/29 00:33:39;;;;;;;36.63;27.27;;;;;;;;;;5091784;28;20218;-64
2023/04/29 00:36:05;;;;;;;37.00;25.83;;;;;;;;;;5092409;28;20205;-63
2023/04/29 00:38:30;;;;;;;30.13;23.92;;;;;;;;;;5092563;28;20210;-64
2023/04/29 00:40:56;;;;;;;32.17;24.17;;;;;;;;;;5091812;28;20214;-63
2023/04/29 00:43:21;;;;;;;31.25;24.63;;;;;;;;;;5090789;28;20250;-64
2023/04/29 00:45:46;;;;;;;31.40;23.58;;;;;;;;;;5091066;28;20676;-64
2023/04/29 00:48:14;;;;;;;30.13;23.08;;;;;;;;;;5091304;28;20234;-64
2023/04/29 00:50:39;;;;;;;28.90;22.38;;;;;;;;;;5092293;28;20255;-64
2023/04/29 00:53:05;;;;;;;28.70;22.30;;;;;;;;;;5081699;28;20214;-64
2023/04/29 00:55:30;;;;;;;30.65;22.05;;;;;;;;;;5079175;28;20205;-64
2023/04/29 00:57:55;;;;;;;30.70;22.13;;;;;;;;;;5080736;28;20333;-64
2023/04/29 01:00:21;;;;;;;29.77;21.85;;;;;;;;;;5079915;28;20305;-64
2023/04/29 01:02:46;;;;;;;28.17;21.27;;;;;;;;;;5067484;28;20315;-64
2023/04/29 01:05:13;;;;;;;30.95;22.02;;;;;;;;;;5076656;28;20684;-64
2023/04/29 01:07:44;;;;;;;31.25;21.55;;;;;;;;;;5077052;28;21336;-64
2023/04/29 01:10:13;;;;;;;25.88;19.58;;;;;;;;;;5066121;28;20265;-64
2023/04/29 01:12:44;;;;;;;28.58;20.58;;;;;;;;;;5074476;28;20236;-64
2023/04/29 01:15:11;;;;;;;31.15;20.95;;;;;;;;;;5076037;28;20246;-64
2023/04/29 01:17:40;;;;;;;27.50;20.75;;;;;;;;;;5080493;28;20224;-64
2023/04/29 01:20:06;;;;;;;29.23;20.42;;;;;;;;;;5079962;28;20578;-64
2023/04/29 01:22:31;;;;;;;28.00;20.70;;;;;;;;;;5071463;28;20210;-64
2023/04/29 01:24:56;;;;;;;30.55;20.60;;;;;;;;;;5081210;28;20248;-64
2023/04/29 01:27:31;;;;;;;30.85;20.67;;;;;;;;;;5075093;28;20245;-64
2023/04/29 01:29:59;;;;;;;25.75;18.25;;;;;;;;;;5072736;28;20288;-64
2023/04/29 01:32:32;;;;;;;29.55;20.80;;;;;;;;;;5053847;28;20206;-64
2023/04/29 01:35:10;;;;;;;30.40;20.27;;;;;;;;;;5069250;28;20606;-64
2023/04/29 01:37:40;;;;;;;28.70;20.38;;;;;;;;;;5056827;28;20297;-64
2023/04/29 01:40:12;;;;;;;26.75;17.83;;;;;;;;;;5076057;28;20251;-63
2023/04/29 01:42:39;;;;;;;27.42;18.13;;;;;;;;;;5061568;28;20840;-64
2023/04/29 01:45:05;;;;;;;27.17;17.70;;;;;;;;;;5059992;28;20246;-64
2023/04/29 01:47:30;;;;;;;25.13;17.90;;;;;;;;;;5075888;28;20210;-64
2023/04/29 01:49:56;;;;;;;28.13;18.98;;;;;;;;;;5076016;28;20234;-64
2023/04/29 01:52:22;;;;;;;25.90;17.83;;;;;;;;;;5058159;28;20221;-64
2023/04/29 01:54:47;;;;;;;25.67;18.13;;;;;;;;;;5053852;28;20210;-64
2023/04/29 01:57:12;;;;;;;24.42;18.23;;;;;;;;;;5052121;28;20214;-64
2023/04/29 01:59:37;;;;;;;29.13;18.48;;;;;;;;;;5070495;28;20568;-64
2023/04/29 02:02:03;;;;;;;26.95;18.30;;;;;;;;;;5070274;28;20411;-64
2023/04/29 02:04:28;;;;;;;27.33;18.50;;;;;;;;;;5080620;28;20691;-64
2023/04/29 02:06:53;;;;;;;28.15;18.38;;;;;;;;;;5064064;28;20696;-64
2023/04/29 02:09:19;;;;;;;25.60;17.42;;;;;;;;;;5070713;28;20295;-63
2023/04/29 02:11:44;;;;;;;25.23;16.80;;;;;;;;;;5070366;28;20218;-64
2023/04/29 02:14:11;;;;;;;26.08;17.05;;;;;;;;;;5070160;28;20255;-64
2023/04/29 02:16:36;;;;;;;24.38;16.90;;;;;;;;;;5070312;28;20251;-64
2023/04/29 02:19:01;;;;;;;20.05;15.43;;;;;;;;;;5069085;28;20214;-63
2023/04/29 02:21:27;;;;;;;25.65;17.33;;;;;;;;;;5071286;28;20207;-64
2023/04/29 02:23:53;;;;;;;21.95;15.77;;;;;;;;;;5072794;28;20210;-64
2023/04/29 02:26:19;;;;;;;23.85;15.68;;;;;;;;;;5069085;28;20219;-64
2023/04/29 02:28:44;;;;;;;23.20;16.08;;;;;;;;;;5063734;28;20233;-64
2023/04/29 02:31:09;;;;;;;21.40;15.23;;;;;;;;;;5064228;28;20214;-64
2023/04/29 02:33:34;;;;;;;24.10;16.08;;;;;;;;;;5059790;28;20684;-64
2023/04/29 02:36:00;;;;;;;21.83;15.18;;;;;;;;;;5074146;28;20579;-64
2023/04/29 02:38:25;;;;;;;20.88;15.13;;;;;;;;;;5071968;28;20206;-64
2023/04/29 02:40:51;;;;;;;20.67;15.32;;;;;;;;;;5072092;28;20262;-64
2023/04/29 02:43:16;;;;;;;20.58;14.85;;;;;;;;;;5078491;28;20213;-64
2023/04/29 02:45:41;;;;;;;22.30;16.48;;;;;;;;;;5080247;28;20215;-64
2023/04/29 02:48:06;;;;;;;23.70;15.38;;;;;;;;;;5078804;28;20687;-64
2023/04/29 02:50:32;;;;;;;22.98;15.60;;;;;;;;;;5080532;28;20218;-65
2023/04/29 02:52:57;;;;;;;23.33;15.20;;;;;;;;;;5080262;28;20212;-64
2023/04/29 02:55:22;;;;;;;22.17;15.68;;;;;;;;;;5079022;28;20226;-64
2023/04/29 02:57:48;;;;;;;20.92;14.43;;;;;;;;;;5076214;28;20224;-64
2023/04/29 03:00:13;;;;;;;20.95;15.07;;;;;;;;;;5071080;28;20676;-64
2023/04/29 03:02:38;;;;;;;20.40;14.60;;;;;;;;;;5056943;28;20260;-65
2023/04/29 03:05:04;;;;;;;21.98;14.43;;;;;;;;;;5055891;28;20263;-64
2023/04/29 03:07:30;;;;;;;25.85;15.48;;;;;;;;;;5059578;28;20301;-64
2023/04/29 03:09:55;;;;;;;21.05;14.45;;;;;;;;;;5069669;28;20231;-64
2023/04/29 03:12:20;;;;;;;22.27;15.32;;;;;;;;;;5077826;28;20213;-64
2023/04/29 03:14:46;;;;;;;21.55;15.05;;;;;;;;;;5077709;28;20229;-64
2023/04/29 03:17:11;;;;;;;21.45;15.23;;;;;;;;;;5078263;28;20219;-64
2023/04/29 03:19:36;;;;;;;21.80;15.82;;;;;;;;;;5076887;28;20210;-64
2023/04/29 03:22:02;;;;;;;22.83;15.57;;;;;;;;;;5065763;28;20757;-64
2023/04/29 03:24:27;;;;;;;19.88;14.98;;;;;;;;;;5072307;28;20817;-64
2023/04/29 03:26:53;;;;;;;21.58;15.80;;;;;;;;;;5073271;28;20678;-64
2023/04/29 03:29:18;;;;;;;22.52;16.40;;;;;;;;;;5078664;28;20454;-64
2023/04/29 03:31:44;;;;;;;23.27;15.77;;;;;;;;;;5082451;28;20206;-65
2023/04/29 03:34:09;;;;;;;23.70;15.93;;;;;;;;;;5082134;28;20213;-63
2023/04/29 03:36:34;;;;;;;23.85;16.52;;;;;;;;;;5082863;28;20218;-64
2023/04/29 03:38:59;;;;;;;25.42;16.27;;;;;;;;;;5083417;28;20734;-65
2023/04/29 03:41:25;;;;;;;22.45;16.10;;;;;;;;;;5083075;28;20209;-64
2023/04/29 03:43:50;;;;;;;21.52;15.85;;;;;;;;;;5077492;28;20214;-64
2023/04/29 03:46:16;;;;;;;22.15;15.93;;;;;;;;;;5075267;28;20229;-64
2023/04/29 03:48:41;;;;;;;23.65;16.73;;;;;;;;;;5075829;28;21363;-64
2023/04/29 03:51:06;;;;;;;23.98;15.75;;;;;;;;;;5080564;28;20222;-64
2023/04/29 03:53:32;;;;;;;25.35;16.35;;;;;;;;;;5087652;28;20217;-64
2023/04/29 03:55:58;;;;;;;22.10;15.63;;;;;;;;;;5077955;28;20207;-63
2023/04/29 03:58:23;;;;;;;22.98;16.48;;;;;;;;;;5063465;28;20677;-64
2023/04/29 04:00:48;;;;;;;23.10;16.10;;;;;;;;;;5078790;28;20303;-64
2023/04/29 04:03:14;;;;;;;21.30;16.17;;;;;;;;;;5062822;28;20199;-64
2023/04/29 04:05:39;;;;;;;24.52;16.70;;;;;;;;;;5062798;28;20795;-64
2023/04/29 04:08:04;;;;;;;21.25;16.15;;;;;;;;;;5061978;28;20241;-63
2023/04/29 04:10:30;;;;;;;24.38;16.15;;;;;;;;;;5060826;28;20325;-63
2023/04/29 04:12:55;;;;;;;21.35;14.80;;;;;;;;;;5054752;28;20234;-64
2023/04/29 04:15:21;;;;;;;23.63;15.98;;;;;;;;;;5055510;28;20256;-64
2023/04/29 04:17:46;;;;;;;25.65;15.85;;;;;;;;;;5062132;28;20279;-64
2023/04/29 04:20:12;;;;;;;25.42;16.02;;;;;;;;;;5062322;28;20218;-64
2023/04/29 04:22:37;;;;;;;22.88;15.27;;;;;;;;;;5064190;28;20211;-64
2023/04/29 04:25:03;;;;;;;20.48;15.20;;;;;;;;;;5061482;28;20678;-63
2023/04/29 04:27:28;;;;;;;21.52;15.63;;;;;;;;;;5063264;28;20321;-64
2023/04/29 04:29:54;;;;;;;22.15;14.75;;;;;;;;;;5062432;28;20634;-65
2023/04/29 04:32:20;;;;;;;19.92;15.00;;;;;;;;;;5056763;28;20246;-64
2023/04/29 04:34:47;;;;;;;20.55;14.77;;;;;;;;;;5074483;28;20484;-64
2023/04/29 04:37:12;;;;;;;23.02;15.00;;;;;;;;;;5074376;28;20229;-64
2023/04/29 04:39:37;;;;;;;22.13;15.52;;;;;;;;;;5080266;28;20711;-64
2023/04/29 04:42:03;;;;;;;23.63;15.02;;;;;;;;;;5082000;28;20421;-64
2023/04/29 04:44:29;;;;;;;21.88;15.93;;;;;;;;;;5082559;28;20569;-63
2023/04/29 04:46:54;;;;;;;24.75;15.73;;;;;;;;;;5081360;28;20732;-64
2023/04/29 04:49:19;;;;;;;23.45;16.05;;;;;;;;;;5081997;28;20682;-65
2023/04/29 04:51:45;;;;;;;21.77;15.65;;;;;;;;;;5082028;28;20783;-64
2023/04/29 04:54:11;;;;;;;23.90;17.50;;;;;;;;;;5076533;28;20424;-65
2023/04/29 04:56:36;;;;;;;23.45;16.58;;;;;;;;;;5054843;28;20222;-66
2023/04/29 04:59:02;;;;;;;26.57;18.67;;;;;;;;;;5073422;28;20442;-65
2023/04/29 05:01:27;;;;;;;24.27;16.80;;;;;;;;;;5071695;28;20721;-64
2023/04/29 05:03:53;;;;;;;20.48;15.00;;;;;;;;;;5081499;28;20719;-64
2023/04/29 05:06:18;;;;;;;21.60;16.05;;;;;;;;;;5069894;28;20305;-65
2023/04/29 05:08:43;;;;;;;23.65;16.55;;;;;;;;;;5061116;28;20228;-65
2023/04/29 05:11:18;;;;;;;24.15;16.95;;;;;;;;;;5068737;28;20221;-64
2023/04/29 05:13:43;;;;;;;24.50;16.98;;;;;;;;;;5081474;28;20572;-64
2023/04/29 05:16:09;;;;;;;24.77;15.77;;;;;;;;;;5073296;28;20202;-64
2023/04/29 05:18:34;;;;;;;24.55;15.88;;;;;;;;;;5054725;28;20218;-64
2023/04/29 05:21:00;;;;;;;23.92;15.68;;;;;;;;;;5072844;28;20451;-65
2023/04/29 05:23:25;;;;;;;21.55;16.08;;;;;;;;;;5058017;28;20690;-64
2023/04/29 05:25:50;;;;;;;24.95;16.98;;;;;;;;;;5081420;28;20627;-64
2023/04/29 05:28:16;;;;;;;21.45;15.73;;;;;;;;;;5080088;28;20242;-64
2023/04/29 05:30:42;;;;;;;21.55;16.30;;;;;;;;;;5081464;28;20337;-65
2023/04/29 05:33:07;;;;;;;23.38;16.05;;;;;;;;;;5081054;28;20914;-65
2023/04/29 05:35:33;;;;;;;24.40;16.08;;;;;;;;;;5080572;28;20221;-64
2023/04/29 05:37:58;;;;;;;21.83;15.93;;;;;;;;;;5086550;28;20210;-64
2023/04/29 05:40:23;;;;;;;20.67;16.05;;;;;;;;;;5090341;28;20640;-63
2023/04/29 05:42:48;;;;;;;22.92;16.30;;;;;;;;;;5090755;28;20236;-64
2023/04/29 05:45:14;;;;;;;23.48;16.83;;;;;;;;;;5090896;28;20763;-65
2023/04/29 05:47:39;;;;;;;20.73;16.58;;;;;;;;;;5091024;28;20206;-65
2023/04/29 05:50:05;;;;;;;21.50;16.50;;;;;;;;;;5089840;28;20292;-65
2023/04/29 05:52:30;;;;;;;24.48;16.77;;;;;;;;;;5091191;28;20719;-64
2023/04/29 05:54:56;;;;;;;21.67;15.88;;;;;;;;;;5090859;28;20218;-65
2023/04/29 05:57:22;;;;;;;22.33;16.52;;;;;;;;;;5089864;28;20267;-65
2023/04/29 05:59:47;;;;;;;21.25;15.80;;;;;;;;;;5091019;28;20222;-65
2023/04/29 06:02:13;;;;;;;23.63;16.73;;;;;;;;;;5078534;28;20210;-66
2023/04/29 06:04:40;;;;;;;24.73;16.20;;;;;;;;;;5068410;28;20233;-64
2023/04/29 06:07:06;;;;;;;22.73;16.02;;;;;;;;;;5088776;28;20623;-64
2023/04/29 06:09:32;;;;;;;20.90;15.75;;;;;;;;;;5082589;28;20305;-64
2023/04/29 06:11:57;;;;;;;25.27;16.80;;;;;;;;;;5069754;28;20306;-63
2023/04/29 06:14:22;;;;;;;23.08;16.08;;;;;;;;;;5070137;28;20293;-62
2023/04/29 06:16:48;;;;;;;22.95;16.65;;;;;;;;;;5081988;28;20202;-63
2023/04/29 06:19:14;;;;;;;25.08;16.48;;;;;;;;;;5089554;28;20205;-62
2023/04/29 06:21:39;;;;;;;22.25;17.33;;;;;;;;;;5086607;28;20221;-63
2023/04/29 06:24:04;;;;;;;24.63;16.88;;;;;;;;;;5070077;28;20214;-63
2023/04/29 06:26:30;;;;;;;23.83;16.20;;;;;;;;;;5069674;28;20293;-63
2023/04/29 06:28:55;;;;;;;24.48;16.27;;;;;;;;;;5070099;28;20313;-63
2023/04/29 06:31:21;;;;;;;28.50;16.80;;;;;;;;;;5067691;28;20206;-64
2023/04/29 06:33:46;;;;;;;23.77;16.13;;;;;;;;;;5070219;28;20210;-63
2023/04/29 06:36:12;;;;;;;26.27;15.90;;;;;;;;;;5069729;28;20249;-64
2023/04/29 06:38:37;;;;;;;26.10;16.48;;;;;;;;;;5076929;28;20234;-63
2023/04/29 06:41:03;;;;;;;27.27;16.55;;;;;;;;;;5074911;28;20288;-63
2023/04/29 06:43:28;;;;;;;21.73;15.40;;;;;;;;;;5089841;28;20602;-63
2023/04/29 06:45:54;;;;;;;22.67;15.73;;;;;;;;;;5084285;28;20268;-64
2023/04/29 06:48:19;;;;;;;24.80;15.82;;;;;;;;;;5083143;28;20225;-64
2023/04/29 06:51:03;;;;;;;22.13;15.80;;;;;;;;;;5069297;28;20633;-64
2023/04/29 06:53:28;;;;;;;22.05;15.90;;;;;;;;;;5068912;28;20218;-65
2023/04/29 06:55:54;;;;;;;22.40;15.98;;;;;;;;;;5068966;28;20214;-64
2023/04/29 06:58:20;;;;;;;24.85;16.65;;;;;;;;;;5069614;28;20214;-63
2023/04/29 07:00:45;;;;;;;26.15;15.98;;;;;;;;;;5069308;28;20211;-64
2023/04/29 07:03:11;;;;;;;25.75;16.88;;;;;;;;;;5069169;28;20267;-63
2023/04/29 07:05:39;;;;;;;21.48;15.57;;;;;;;;;;5075802;28;20209;-64
2023/04/29 07:08:04;;;;;;;28.08;15.98;;;;;;;;;;5092766;28;20238;-63
2023/04/29 07:10:30;;;;;;;25.60;16.13;;;;;;;;;;5079287;28;20564;-64
2023/04/29 07:12:55;;;;;;;28.75;16.60;;;;;;;;;;5073970;28;20739;-64
2023/04/29 07:15:20;;;;;;;23.77;15.77;;;;;;;;;;5072617;28;20210;-63
2023/04/29 07:17:46;;;;;;;26.63;15.98;;;;;;;;;;5068517;28;20623;-63
2023/04/29 07:20:11;;;;;;;23.13;15.75;;;;;;;;;;5073075;28;20219;-63
2023/04/29 07:22:36;;;;;;;22.23;14.60;;;;;;;;;;5071595;28;20210;-63
2023/04/29 07:25:03;;;;;;;22.90;14.70;;;;;;;;;;5073141;28;20218;-63
2023/04/29 07:27:28;;;;;;;23.52;15.88;;;;;;;;;;5073782;28;20281;-65
2023/04/29 07:29:54;;;;;;;24.00;14.88;;;;;;;;;;5072590;28;20305;-64
2023/04/29 07:32:19;;;;;;;23.42;13.93;;;;;;;;;;5071664;28;20210;-64
2023/04/29 07:34:44;;;;;;;27.27;14.35;;;;;;;;;;5072695;28;20238;-64
2023/04/29 07:37:10;;;;;;;19.38;13.50;;;;;;;;;;5072816;28;20259;-63
2023/04/29 07:39:35;;;;;;;20.77;12.85;;;;;;;;;;5073317;28;20669;-63
2023/04/29 07:42:02;;;;;;;18.58;12.35;;;;;;;;;;5072251;28;20215;-62
2023/04/29 07:44:27;;;;;;;18.65;13.32;;;;;;;;;;5073212;28;20202;-63
2023/04/29 07:46:52;;;;;;;23.20;13.63;;;;;;;;;;5071877;28;20218;-63
2023/04/29 07:49:18;;;;;;;20.15;13.43;;;;;;;;;;5078413;28;20214;-63
2023/04/29 07:51:43;;;;;;;20.20;12.55;;;;;;;;;;5093397;28;20214;-63
2023/04/29 07:54:08;;;;;;;17.40;12.85;;;;;;;;;;5092744;28;20217;-63
2023/04/29 07:56:33;;;;;;;20.13;12.95;;;;;;;;;;5091294;28;20213;-63
2023/04/29 07:59:00;;;;;;;17.85;12.82;;;;;;;;;;5076880;28;20214;-63
2023/04/29 08:01:25;;;;;;;18.40;12.90;;;;;;;;;;5072642;28;20610;-63
2023/04/29 08:03:51;;;;;;;20.30;12.88;;;;;;;;;;5070885;28;20674;-63
2023/04/29 08:06:19;;;;;;;18.88;11.50;;;;;;;;;;5072309;28;20222;-63
2023/04/29 08:08:45;;;;;;;18.60;12.23;;;;;;;;;;5082542;28;20222;-63
2023/04/29 08:11:14;;;;;;;23.63;13.35;;;;;;;;;;5078655;28;20215;-63
2023/04/29 08:13:39;;;;;;;19.20;11.50;;;;;;;;;;5071368;28;20211;-63
2023/04/29 08:16:05;;;;;;;17.90;12.13;;;;;;;;;;5076490;28;20209;-63
2023/04/29 08:18:30;;;;;;;17.60;11.60;;;;;;;;;;5090899;28;20563;-63
2023/04/29 08:20:56;;;;;;;20.25;11.95;;;;;;;;;;5091691;28;20227;-63
2023/04/29 08:23:21;;;;;;;21.90;13.35;;;;;;;;;;5091411;28;20296;-63
2023/04/29 08:25:46;;;;;;;20.30;13.88;;;;;;;;;;5090952;28;20214;-63
2023/04/29 08:28:11;;;;;;;20.35;12.85;;;;;;;;;;5091279;28;20240;-63
2023/04/29 08:30:38;;;;;;;18.50;12.20;;;;;;;;;;5091436;28;20309;-63
2023/04/29 08:33:03;;;;;;;21.40;12.13;;;;;;;;;;5090467;28;20287;-63
2023/04/29 08:35:29;;;;;;;19.10;12.52;;;;;;;;;;5091460;28;20254;-63
2023/04/29 08:37:55;;;;;;;18.65;12.10;;;;;;;;;;5090949;28;20217;-64
2023/04/29 08:40:21;;;;;;;17.63;11.85;;;;;;;;;;5090862;28;20209;-63
2023/04/29 08:42:46;;;;;;;19.92;11.68;;;;;;;;;;5091564;28;20408;-63
2023/04/29 08:45:12;;;;;;;18.05;12.07;;;;;;;;;;5071558;28;20240;-63
2023/04/29 08:47:37;;;;;;;20.58;12.25;;;;;;;;;;5088186;28;20288;-63
2023/04/29 08:50:03;;;;;;;15.73;11.15;;;;;;;;;;5070511;28;20223;-64
2023/04/29 08:52:29;;;;;;;20.13;11.60;;;;;;;;;;5070338;28;20241;-63
2023/04/29 08:54:54;;;;;;;19.40;12.38;;;;;;;;;;5071005;28;20575;-63
2023/04/29 08:57:20;;;;;;;18.77;12.27;;;;;;;;;;5070391;28;20210;-64
2023/04/29 08:59:45;;;;;;;15.27;11.77;;;;;;;;;;5069038;28;20211;-63
2023/04/29 09:02:11;;;;;;;19.10;12.18;;;;;;;;;;5070284;28;20211;-62
2023/04/29 09:04:40;;;;;;;19.25;11.98;;;;;;;;;;5071043;28;20483;-63
2023/04/29 09:07:06;;;;;;;16.67;11.70;;;;;;;;;;5069536;28;20245;-62
2023/04/29 09:09:32;;;;;;;18.30;11.55;;;;;;;;;;5035951;28;1140272;-63
2023/04/29 09:11:57;;;;;;;17.23;11.38;;;;;;;;;;5075163;28;20221;-64
2023/04/29 09:14:23;;;;;;;16.30;10.93;;;;;;;;;;5070692;28;20210;-64
2023/04/29 09:16:48;;;;;;;14.45;10.98;;;;;;;;;;5081905;28;20611;-64
2023/04/29 09:19:30;;;;;;;16.88;11.35;;;;;;;;;;5091309;28;20206;-64
2023/04/29 09:21:55;;;;;;;17.70;11.35;;;;;;;;;;5089559;28;20210;-63
2023/04/29 09:24:23;;;;;;;15.45;10.35;;;;;;;;;;5091149;28;20221;-63
2023/04/29 09:26:49;;;;;;;16.42;10.52;;;;;;;;;;5091545;28;20206;-63
2023/04/29 09:29:15;;;;;;;17.10;10.43;;;;;;;;;;5088427;28;20288;-64
2023/04/29 09:31:40;;;;;;;16.85;11.27;;;;;;;;;;5091550;28;20676;-64
2023/04/29 09:34:06;;;;;;;15.17;10.33;;;;;;;;;;5090473;28;20432;-63
2023/04/29 09:36:44;;;;;;;14.07;9.10;;;;;;;;;;5089523;28;20218;-64
2023/04/29 09:39:10;;;;;;;11.50;8.63;;;;;;;;;;5090905;28;20256;-64
2023/04/29 09:41:37;;;;;;;13.05;9.43;;;;;;;;;;5090309;28;20771;-64
2023/04/29 09:44:04;;;;;;;12.27;7.95;;;;;;;;;;5089546;28;20587;-63
2023/04/29 09:46:31;;;;;;;15.55;8.90;;;;;;;;;;5090104;28;20210;-64
2023/04/29 09:48:57;;;;;;;12.43;7.88;;;;;;;;;;5078017;28;20477;-63
2023/04/29 09:51:22;;;;;;;9.75;7.45;;;;;;;;;;5070241;28;20692;-64
2023/04/29 09:53:48;;;;;;;12.68;7.65;;;;;;;;;;5070981;28;20198;-64
2023/04/29 09:56:13;;;;;;;11.75;7.88;;;;;;;;;;5069541;28;20221;-65
2023/04/29 09:58:39;;;;;;;12.10;7.65;;;;;;;;;;5070758;28;20607;-64
2023/04/29 10:01:04;;;;;;;10.60;7.15;;;;;;;;;;5070357;28;20207;-62
2023/04/29 10:03:31;;;;;;;13.93;7.60;;;;;;;;;;5068360;28;20206;-63
2023/04/29 10:05:57;;;;;;;10.60;7.38;;;;;;;;;;5070580;28;20222;-63
2023/04/29 10:08:22;;;;;;;12.25;7.25;;;;;;;;;;5068717;28;20222;-63
2023/04/29 10:10:48;;;;;;;10.52;7.85;;;;;;;;;;5085483;28;20592;-63
2023/04/29 10:13:14;;;;;;;10.70;6.95;;;;;;;;;;5088970;28;20250;-62
2023/04/29 10:15:41;;;;;;;12.73;7.45;;;;;;;;;;5088740;28;20217;-63
2023/04/29 10:18:11;;;;;;;13.77;7.15;;;;;;;;;;5077535;28;20210;-62
2023/04/29 10:20:37;;;;;;;11.57;7.15;;;;;;;;;;5088921;28;20213;-64
2023/04/29 10:23:02;;;;;;;10.60;7.63;;;;;;;;;;5088238;28;20706;-62
2023/04/29 10:25:27;;;;;;;12.85;7.57;;;;;;;;;;5088117;28;20521;-63
2023/04/29 10:27:53;;;;;;;11.43;7.57;;;;;;;;;;5080151;28;20264;-62
2023/04/29 10:30:18;;;;;;;13.27;7.32;;;;;;;;;;5067900;28;20221;-62
2023/04/29 10:32:44;;;;;;;9.35;6.40;;;;;;;;;;5051171;28;20233;-64
2023/04/29 10:35:10;;;;;;;11.15;6.28;;;;;;;;;;5069383;28;20276;-63
2023/04/29 10:37:36;;;;;;;11.00;6.20;;;;;;;;;;5068928;28;20586;-63
2023/04/29 10:40:14;;;;;;;9.18;6.22;;;;;;;;;;5067909;28;20298;-62
2023/04/29 10:42:41;;;;;;;11.88;6.10;;;;;;;;;;5072864;28;20241;-63
2023/04/29 10:45:19;;;;;;;9.88;6.22;;;;;;;;;;5088826;28;20208;-62
2023/04/29 10:48:01;;;;;;;8.35;5.32;;;;;;;;;;5087856;28;20239;-62
2023/04/29 10:50:28;;;;;;;9.18;5.88;;;;;;;;;;5085649;28;20280;-62
2023/04/29 10:52:54;;;;;;;10.07;5.30;;;;;;;;;;5088272;28;20217;-62
2023/04/29 10:55:19;;;;;;;8.05;5.72;;;;;;;;;;5089898;28;20252;-63
2023/04/29 10:57:44;;;;;;;8.38;4.72;;;;;;;;;;5090124;28;20220;-62
2023/04/29 11:00:20;;;;;;;7.68;4.88;;;;;;;;;;5088558;28;20210;-62
2023/04/29 11:02:46;;;;;;;9.18;5.93;;;;;;;;;;5089342;28;21125;-63
2023/04/29 11:05:11;;;;;;;10.07;5.97;;;;;;;;;;5077540;28;20305;-63
2023/04/29 11:07:37;;;;;;;9.15;6.13;;;;;;;;;;5089406;28;20213;-63
2023/04/29 11:10:02;;;;;;;7.80;5.35;;;;;;;;;;5078458;28;20233;-62
2023/04/29 11:12:27;;;;;;;8.32;5.60;;;;;;;;;;5069979;28;20202;-62
2023/04/29 11:14:54;;;;;;;8.98;5.82;;;;;;;;;;5067782;28;20572;-63
2023/04/29 11:17:19;;;;;;;8.82;5.25;;;;;;;;;;5063218;28;20294;-63
2023/04/29 11:19:45;;;;;;;9.57;4.90;;;;;;;;;;5068923;28;20297;-63
2023/04/29 11:22:13;;;;;;;9.77;5.55;;;;;;;;;;5069363;28;20261;-62
2023/04/29 11:24:49;;;;;;;9.52;5.10;;;;;;;;;;5080668;28;20296;-63
2023/04/29 11:27:14;;;;;;;8.93;5.07;;;;;;;;;;5088634;28;20205;-62
2023/04/29 11:29:40;;;;;;;9.00;4.80;;;;;;;;;;5088348;28;20264;-62
2023/04/29 11:32:06;;;;;;;7.13;4.88;;;;;;;;;;5088211;28;20263;-62
2023/04/29 11:34:31;;;;;;;8.95;4.70;;;;;;;;;;5089063;28;20202;-65
2023/04/29 11:36:56;;;;;;;8.23;4.43;;;;;;;;;;5089950;28;20221;-62
2023/04/29 11:39:22;;;;;;;7.13;4.60;;;;;;;;;;5089294;28;20198;-63
2023/04/29 11:41:48;;;;;;;6.55;4.50;;;;;;;;;;5088929;28;20214;-63
2023/04/29 11:44:13;;;;;;;6.47;4.18;;;;;;;;;;5089219;28;20206;-62
2023/04/29 11:46:38;;;;;;;6.97;3.90;;;;;;;;;;5089772;28;20579;-62
2023/04/29 11:49:04;;;;;;;6.63;4.10;;;;;;;;;;5083265;28;20612;-63
2023/04/29 11:51:29;;;;;;;5.90;3.47;;;;;;;;;;5070261;28;20301;-63
2023/04/29 11:53:56;;;;;;;6.55;3.38;;;;;;;;;;5071914;28;20571;-63
2023/04/29 11:56:24;;;;;;;4.82;2.97;;;;;;;;;;5071929;28;20582;-63
2023/04/29 11:58:49;;;;;;;5.38;3.50;;;;;;;;;;5071755;28;20352;-63
2023/04/29 12:01:15;;;;;;;6.35;4.32;;;;;;;;;;5071235;28;20730;-62
2023/04/29 12:03:40;;;;;;;5.45;3.90;;;;;;;;;;5072497;28;20210;-63
2023/04/29 12:06:05;;;;;;;5.72;3.70;;;;;;;;;;5081315;28;20217;-62
2023/04/29 12:08:32;;;;;;;5.82;3.63;;;;;;;;;;5092965;28;20241;-62
2023/04/29 12:10:58;;;;;;;6.40;3.95;;;;;;;;;;5073247;28;20316;-63
2023/04/29 12:13:24;;;;;;;5.30;3.67;;;;;;;;;;5072480;28;20738;-63
2023/04/29 12:15:50;;;;;;;6.22;3.78;;;;;;;;;;5074619;28;20233;-63
2023/04/29 12:18:16;;;;;;;5.85;4.00;;;;;;;;;;5092034;28;20287;-62
2023/04/29 12:20:41;;;;;;;6.72;4.00;;;;;;;;;;5091386;28;20527;-63
2023/04/29 12:23:13;;;;;;;7.70;4.80;;;;;;;;;;5091700;28;20218;-62
2023/04/29 12:25:40;;;;;;;7.05;4.10;;;;;;;;;;5092819;28;20300;-63
2023/04/29 12:28:05;;;;;;;5.15;3.08;;;;;;;;;;5091986;28;20259;-62
2023/04/29 12:30:33;;;;;;;6.15;3.50;;;;;;;;;;5091435;28;20648;-62
2023/04/29 12:32:58;;;;;;;6.28;3.33;;;;;;;;;;5091361;28;20703;-63
2023/04/29 12:35:23;;;;;;;6.95;3.67;;;;;;;;;;5092172;28;20214;-63
2023/04/29 12:37:49;;;;;;;5.53;3.70;;;;;;;;;;5091892;28;20206;-62
2023/04/29 12:40:15;;;;;;;5.00;3.08;;;;;;;;;;5091977;28;21132;-63
2023/04/29 12:42:40;;;;;;;5.50;2.97;;;;;;;;;;5092551;28;20331;-63
2023/04/29 12:45:06;;;;;;;8.38;3.60;;;;;;;;;;5091259;28;20217;-62
2023/04/29 12:47:38;;;;;;;5.63;3.70;;;;;;;;;;5090691;28;20229;-62
2023/04/29 12:50:05;;;;;;;6.05;4.10;;;;;;;;;;5070233;28;20272;-62
2023/04/29 12:52:31;;;;;;;9.00;4.13;;;;;;;;;;5069934;28;20251;-62
2023/04/29 12:54:56;;;;;;;8.70;4.63;;;;;;;;;;5071996;28;20229;-63
2023/04/29 12:57:24;;;;;;;7.50;4.32;;;;;;;;;;5069976;28;20203;-62
2023/04/29 12:59:49;;;;;;;7.43;4.03;;;;;;;;;;5071250;28;20237;-62
2023/04/29 13:02:15;;;;;;;5.80;3.72;;;;;;;;;;5071303;28;20580;-62
2023/04/29 13:04:40;;;;;;;6.05;3.83;;;;;;;;;;5070919;28;20696;-63
2023/04/29 13:07:06;;;;;;;6.68;3.65;;;;;;;;;;5070406;28;20211;-62
2023/04/29 13:09:31;;;;;;;5.63;3.60;;;;;;;;;;5077923;28;20224;-62
2023/04/29 13:11:57;;;;;;;6.60;3.72;;;;;;;;;;5091799;28;20240;-62
2023/04/29 13:14:23;;;;;;;6.75;3.40;;;;;;;;;;5089412;28;20571;-62
2023/04/29 13:16:48;;;;;;;6.10;3.25;;;;;;;;;;5080235;28;20289;-62
2023/04/29 13:19:13;;;;;;;4.55;2.80;;;;;;;;;;5070590;28;20213;-63
2023/04/29 13:21:39;;;;;;;4.70;3.13;;;;;;;;;;5070219;28;20557;-62
2023/04/29 13:24:04;;;;;;;5.20;2.92;;;;;;;;;;5071163;28;20211;-61
2023/04/29 13:26:30;;;;;;;6.25;3.53;;;;;;;;;;5070325;28;20233;-62
2023/04/29 13:28:55;;;;;;;6.45;3.90;;;;;;;;;;5071203;28;20233;-63
2023/04/29 13:31:20;;;;;;;8.65;4.30;;;;;;;;;;5069336;28;20219;-62
2023/04/29 13:33:47;;;;;;;6.18;4.05;;;;;;;;;;5069226;28;20211;-63
2023/04/29 13:36:12;;;;;;;4.53;3.28;;;;;;;;;;5070935;28;20224;-62
2023/04/29 13:38:37;;;;;;;6.97;3.17;;;;;;;;;;5071079;28;20289;-62
2023/04/29 13:41:03;;;;;;;6.38;3.20;;;;;;;;;;5069832;28;20302;-62
2023/04/29 13:43:28;;;;;;;5.30;3.00;;;;;;;;;;5071037;28;20223;-62
2023/04/29 13:45:53;;;;;;;6.38;3.00;;;;;;;;;;5071008;28;20226;-62
2023/04/29 13:48:19;;;;;;;4.75;2.60;;;;;;;;;;5069589;28;20694;-62
2023/04/29 13:50:44;;;;;;;2.88;2.03;;;;;;;;;;5070962;28;20213;-63
2023/04/29 13:53:10;;;;;;;4.18;2.60;;;;;;;;;;5070479;28;20209;-62
2023/04/29 13:55:35;;;;;;;5.45;2.30;;;;;;;;;;5070105;28;20222;-62
2023/04/29 13:58:01;;;;;;;4.57;2.22;;;;;;;;;;5068925;28;20225;-62
2023/04/29 14:00:26;;;;;;;3.95;2.00;;;;;;;;;;5077574;28;20220;-63
2023/04/29 14:02:51;;;;;;;5.38;2.60;;;;;;;;;;5089960;28;20205;-63
2023/04/29 14:05:17;;;;;;;3.88;2.40;;;;;;;;;;5086913;28;20242;-63
2023/04/29 14:07:42;;;;;;;4.25;2.15;;;;;;;;;;5070704;28;20217;-62
2023/04/29 14:10:07;;;;;;;3.97;2.10;;;;;;;;;;5080830;28;20256;-63
2023/04/29 14:12:33;;;;;;;5.03;2.00;;;;;;;;;;5090611;28;20695;-63
2023/04/29 14:14:58;;;;;;;4.97;2.10;;;;;;;;;;5090570;28;20224;-63
2023/04/29 14:17:23;;;;;;;8.15;2.35;;;;;;;;;;5073079;28;20234;-63